createdAt,value
2022-09-07T00:00:55.783Z,25.67
2022-09-07T00:03:22.741Z,25.51
2022-09-07T00:05:51.530Z,24.95
2022-09-07T00:08:20.854Z,26.83
2022-09-07T00:10:59.349Z,25.98
2022-09-07T00:13:29.347Z,25.71
2022-09-07T00:15:57.050Z,25.82
2022-09-07T00:18:24.686Z,25.51
2022-09-07T00:21:03.201Z,25.46
2022-09-07T00:23:31.356Z,25.36
2022-09-07T00:26:07.310Z,25.29
2022-09-07T00:28:35.015Z,26.52
2022-09-07T00:31:02.774Z,25.23
2022-09-07T00:33:30.434Z,26.65
2022-09-07T00:36:00.109Z,25.75
2022-09-07T00:38:26.994Z,26.61
2022-09-07T00:40:54.410Z,26.11
2022-09-07T00:43:38.229Z,27.13
2022-09-07T00:46:07.223Z,25.88
2022-09-07T00:48:46.401Z,27.57
2022-09-07T00:51:19.093Z,26.95
2022-09-07T00:53:54.416Z,27.53
2022-09-07T00:56:23.538Z,30.33
2022-09-07T00:58:51.302Z,26.97
2022-09-07T01:01:18.239Z,25.81
2022-09-07T01:03:50.028Z,26.55
2022-09-07T01:06:26.766Z,25.39
2022-09-07T01:08:56.530Z,25.75
2022-09-07T01:11:23.586Z,26.55
2022-09-07T01:13:52.450Z,25.49
2022-09-07T01:16:25.301Z,29.58
2022-09-07T01:18:56.985Z,29.07
2022-09-07T01:21:47.553Z,27.21
2022-09-07T01:24:43.883Z,27.48
2022-09-07T01:27:47.459Z,26.61
2022-09-07T01:30:23.183Z,27.21
2022-09-07T01:33:14.099Z,27.47
2022-09-07T01:36:18.766Z,25.99
2022-09-07T01:38:50.403Z,26.33
2022-09-07T01:41:52.547Z,26.39
2022-09-07T01:44:45.217Z,26.38
2022-09-07T01:47:33.434Z,28.06
2022-09-07T01:50:20.023Z,27.34
2022-09-07T01:52:54.051Z,27.19
2022-09-07T01:55:32.128Z,26.91
2022-09-07T01:58:06.798Z,28.23
2022-09-07T02:00:35.634Z,28.69
2022-09-07T02:03:16.026Z,29.28
2022-09-07T02:05:52.885Z,30.49
2022-09-07T02:08:29.000Z,28.43
2022-09-07T02:11:02.355Z,29.38
2022-09-07T02:13:46.211Z,29.99
2022-09-07T02:16:20.583Z,27.67
2022-09-07T02:18:50.632Z,30.04
2022-09-07T02:21:24.189Z,28.23
2022-09-07T02:23:57.093Z,28.10
2022-09-07T02:26:26.370Z,27.61
2022-09-07T02:28:53.303Z,28.69
2022-09-07T02:31:20.425Z,26.55
2022-09-07T02:33:47.746Z,28.10
2022-09-07T02:36:18.638Z,26.56
2022-09-07T02:38:45.462Z,26.87
2022-09-07T02:41:47.966Z,27.26
2022-09-07T02:44:21.231Z,27.23
2022-09-07T02:47:09.255Z,28.44
2022-09-07T02:49:51.439Z,28.00
2022-09-07T02:52:18.291Z,26.28
2022-09-07T02:54:48.252Z,30.28
2022-09-07T02:57:21.120Z,28.42
2022-09-07T03:00:11.557Z,26.50
2022-09-07T03:02:59.734Z,28.18
2022-09-07T03:05:47.290Z,27.04
2022-09-07T03:08:40.537Z,26.70
2022-09-07T03:11:08.382Z,27.50
2022-09-07T03:13:35.554Z,28.76
2022-09-07T03:16:02.668Z,26.29
2022-09-07T03:18:29.789Z,29.40
2022-09-07T03:20:56.787Z,27.41
2022-09-07T03:23:23.849Z,26.87
2022-09-07T03:25:50.984Z,28.13
2022-09-07T03:28:17.808Z,28.50
2022-09-07T03:30:47.640Z,28.11
2022-09-07T03:33:16.362Z,27.04
2022-09-07T03:35:44.807Z,28.27
2022-09-07T03:38:11.684Z,27.36
2022-09-07T03:40:38.494Z,27.30
2022-09-07T03:43:05.473Z,27.35
2022-09-07T03:45:32.346Z,27.27
2022-09-07T03:47:59.205Z,28.98
2022-09-07T03:50:26.166Z,26.84
2022-09-07T03:52:53.083Z,28.64
2022-09-07T03:55:20.348Z,28.13
2022-09-07T03:57:47.186Z,28.47
2022-09-07T04:00:14.628Z,26.34
2022-09-07T04:02:41.647Z,25.89
2022-09-07T04:05:08.946Z,25.39
2022-09-07T04:07:35.690Z,27.84
2022-09-07T04:10:02.740Z,27.56
2022-09-07T04:12:29.555Z,26.08
2022-09-07T04:14:56.573Z,27.46
2022-09-07T04:17:23.324Z,25.94
2022-09-07T04:19:50.286Z,27.08
2022-09-07T04:22:17.090Z,26.42
2022-09-07T04:24:43.841Z,27.29
2022-09-07T04:27:10.618Z,25.78
2022-09-07T04:29:37.512Z,25.34
2022-09-07T04:32:04.487Z,26.89
2022-09-07T04:34:31.578Z,27.06
2022-09-07T04:36:58.629Z,27.10
2022-09-07T04:39:25.618Z,25.96
2022-09-07T04:41:52.403Z,27.06
2022-09-07T04:44:19.539Z,27.98
2022-09-07T04:46:46.479Z,26.24
2022-09-07T04:49:13.794Z,27.42
2022-09-07T04:51:42.658Z,27.01
2022-09-07T04:54:09.751Z,27.97
2022-09-07T04:56:36.863Z,29.51
2022-09-07T04:59:03.738Z,26.76
2022-09-07T05:01:30.688Z,28.50
2022-09-07T05:04:00.417Z,26.68
2022-09-07T05:06:27.251Z,27.71
2022-09-07T05:08:54.556Z,27.43
2022-09-07T05:11:28.362Z,27.22
2022-09-07T05:13:57.592Z,28.97
2022-09-07T05:16:25.188Z,27.75
2022-09-07T05:18:57.806Z,28.17
2022-09-07T05:21:27.535Z,28.27
2022-09-07T05:23:56.860Z,27.55
2022-09-07T05:26:25.682Z,28.44
2022-09-07T05:28:52.950Z,28.79
2022-09-07T05:31:22.127Z,29.11
2022-09-07T05:36:41.790Z,26.30
2022-09-07T05:39:09.553Z,27.86
2022-09-07T05:41:36.633Z,28.21
2022-09-07T05:46:52.311Z,26.19
2022-09-07T05:49:19.142Z,25.95
2022-09-07T05:51:45.903Z,26.54
2022-09-07T05:54:12.815Z,27.03
2022-09-07T05:56:39.803Z,27.11
2022-09-07T05:59:06.705Z,27.16
2022-09-07T06:01:35.408Z,25.44
2022-09-07T06:04:02.829Z,25.72
2022-09-07T06:06:29.730Z,24.79
2022-09-07T06:08:57.738Z,24.57
2022-09-07T06:11:25.840Z,24.77
2022-09-07T06:13:53.158Z,25.27
2022-09-07T06:16:20.608Z,26.34
2022-09-07T06:18:49.498Z,25.16
2022-09-07T06:21:23.901Z,24.42
2022-09-07T06:23:51.613Z,24.00
2022-09-07T06:26:19.741Z,24.69
2022-09-07T06:28:52.848Z,24.04
2022-09-07T06:31:23.466Z,24.37
2022-09-07T06:33:51.867Z,25.44
2022-09-07T06:36:23.570Z,24.33
2022-09-07T06:38:51.541Z,23.74
2022-09-07T06:44:20.565Z,23.60
2022-09-07T06:47:03.976Z,26.00
2022-09-07T06:49:31.558Z,26.12
2022-09-07T06:51:58.362Z,26.72
2022-09-07T06:57:12.011Z,24.70
2022-09-07T06:59:38.805Z,23.46
2022-09-07T07:02:07.134Z,26.15
2022-09-07T07:04:39.584Z,26.06
2022-09-07T07:07:11.817Z,26.47
2022-09-07T07:09:39.092Z,28.32
2022-09-07T07:12:06.016Z,25.54
2022-09-07T07:14:34.990Z,27.07
2022-09-07T07:17:03.666Z,27.07
2022-09-07T07:19:30.489Z,25.46
2022-09-07T07:24:44.122Z,21.49
2022-09-07T07:27:10.911Z,21.43
2022-09-07T07:29:37.887Z,22.66
2022-09-07T07:32:05.285Z,22.18
2022-09-07T07:34:32.263Z,21.34
2022-09-07T07:36:59.024Z,21.55
2022-09-07T07:42:12.597Z,22.65
2022-09-07T07:44:39.388Z,24.05
2022-09-07T07:47:06.296Z,24.17
2022-09-07T07:49:33.158Z,23.63
2022-09-07T07:54:46.896Z,23.52
2022-09-07T07:57:14.536Z,23.71
2022-09-07T07:59:41.381Z,24.62
2022-09-07T08:02:15.119Z,24.64
2022-09-07T08:04:42.046Z,24.36
2022-09-07T08:07:11.209Z,24.01
2022-09-07T08:09:43.235Z,24.32
2022-09-07T08:12:12.193Z,24.30
2022-09-07T08:14:43.295Z,25.22
2022-09-07T08:17:11.989Z,24.68
2022-09-07T08:19:39.638Z,24.64
2022-09-07T08:22:07.476Z,26.48
2022-09-07T08:24:34.903Z,23.93
2022-09-07T08:27:01.604Z,23.15
2022-09-07T08:29:32.602Z,22.92
2022-09-07T08:32:00.571Z,23.50
2022-09-07T08:34:27.290Z,24.89
2022-09-07T08:36:54.875Z,23.14
2022-09-07T08:39:21.571Z,24.89
2022-09-07T08:42:06.464Z,23.98
2022-09-07T08:44:36.283Z,22.98
2022-09-07T08:47:28.531Z,22.60
2022-09-07T08:50:12.677Z,23.22
2022-09-07T08:53:04.336Z,22.33
2022-09-07T08:55:33.563Z,21.22
2022-09-07T08:58:47.754Z,22.32
2022-09-07T09:04:17.965Z,21.67
2022-09-07T09:07:05.868Z,20.76
2022-09-07T09:09:55.022Z,22.32
2022-09-07T09:12:37.817Z,22.69
2022-09-07T09:15:21.958Z,21.44
2022-09-07T09:18:14.486Z,21.58
2022-09-07T09:20:50.002Z,19.10
2022-09-07T09:23:19.720Z,20.69
2022-09-07T09:25:59.817Z,19.30
2022-09-07T09:28:28.939Z,19.06
2022-09-07T09:30:58.598Z,20.05
2022-09-07T09:33:27.839Z,19.13
2022-09-07T09:35:57.023Z,22.17
2022-09-07T09:38:29.407Z,20.48
2022-09-07T09:40:58.820Z,19.63
2022-09-07T09:43:32.370Z,21.61
2022-09-07T09:46:15.907Z,20.46
2022-09-07T09:48:42.990Z,22.75
2022-09-07T09:54:06.165Z,20.35
2022-09-07T09:56:44.270Z,20.43
2022-09-07T10:05:28.754Z,19.59
2022-09-07T10:07:56.907Z,20.83
2022-09-07T10:10:24.088Z,21.12
2022-09-07T10:12:54.598Z,21.32
2022-09-07T10:15:41.303Z,21.08
2022-09-07T10:18:21.414Z,21.00
2022-09-07T10:20:49.131Z,20.90
2022-09-07T10:23:27.648Z,22.19
2022-09-07T10:25:54.850Z,21.37
2022-09-07T10:28:24.466Z,19.29
2022-09-07T10:31:09.955Z,21.97
2022-09-07T10:37:04.528Z,22.03
2022-09-07T10:40:00.577Z,22.18
2022-09-07T10:42:35.687Z,19.79
2022-09-07T10:45:19.422Z,19.03
2022-09-07T10:48:11.082Z,22.28
2022-09-07T10:50:56.857Z,20.64
2022-09-07T10:53:41.288Z,20.21
2022-09-07T10:56:11.662Z,19.71
2022-09-07T10:59:02.357Z,20.25
2022-09-07T11:01:41.959Z,19.81
2022-09-07T11:04:41.277Z,19.73
2022-09-07T11:07:26.726Z,18.40
2022-09-07T11:10:08.993Z,18.77
2022-09-07T11:12:39.222Z,18.99
2022-09-07T11:15:41.287Z,19.17
2022-09-07T11:18:23.986Z,17.93
2022-09-07T11:20:57.780Z,19.87
2022-09-07T11:23:41.591Z,21.59
2022-09-07T11:26:23.495Z,20.06
2022-09-07T11:31:50.522Z,17.97
2022-09-07T11:34:31.999Z,18.23
2022-09-07T11:37:11.051Z,20.73
2022-09-07T11:39:46.593Z,20.01
2022-09-07T11:42:47.005Z,19.35
2022-09-07T11:45:23.635Z,18.18
2022-09-07T11:48:04.151Z,17.82
2022-09-07T11:50:36.108Z,19.27
2022-09-07T11:53:02.779Z,19.38
2022-09-07T11:55:33.437Z,18.27
2022-09-07T11:58:28.793Z,17.49
2022-09-07T12:01:03.491Z,17.60
2022-09-07T12:04:04.664Z,20.81
2022-09-07T12:06:53.358Z,17.22
2022-09-07T12:09:45.443Z,17.47
2022-09-07T12:12:33.461Z,17.23
2022-09-07T12:15:29.741Z,17.93
2022-09-07T12:18:15.110Z,16.56
2022-09-07T12:20:46.816Z,17.77
2022-09-07T12:23:16.506Z,18.53
2022-09-07T12:25:48.738Z,20.77
2022-09-07T12:28:25.908Z,18.09
2022-09-07T12:30:55.776Z,19.03
2022-09-07T12:33:28.818Z,18.24
2022-09-07T12:35:58.987Z,19.01
2022-09-07T12:38:31.701Z,18.01
2022-09-07T12:41:02.530Z,17.93
2022-09-07T12:43:35.394Z,18.04
2022-09-07T12:46:02.922Z,17.06
2022-09-07T12:49:20.631Z,19.89
2022-09-07T12:52:20.847Z,17.64
2022-09-07T12:55:26.052Z,15.79
2022-09-07T12:57:54.073Z,16.73
2022-09-07T13:00:36.487Z,18.11
2022-09-07T13:06:17.745Z,16.91
2022-09-07T13:09:09.682Z,17.17
2022-09-07T13:11:39.908Z,16.93
2022-09-07T13:14:16.465Z,16.74
2022-09-07T13:19:50.494Z,17.53
2022-09-07T13:22:29.797Z,17.65
2022-09-07T13:24:59.772Z,16.38
2022-09-07T13:27:40.897Z,17.66
2022-09-07T13:30:16.715Z,16.53
2022-09-07T13:35:31.981Z,15.98
2022-09-07T13:38:03.801Z,16.14
2022-09-07T13:40:34.565Z,16.05
2022-09-07T13:43:04.358Z,17.43
2022-09-07T13:45:49.877Z,16.99
2022-09-07T13:48:35.580Z,16.57
2022-09-07T13:51:10.367Z,15.59
2022-09-07T13:53:55.354Z,16.26
2022-09-07T13:56:52.505Z,16.53
2022-09-07T13:59:23.844Z,17.06
2022-09-07T14:01:51.574Z,16.87
2022-09-07T14:04:44.458Z,18.12
2022-09-07T14:07:19.343Z,18.17
2022-09-07T14:09:48.859Z,16.63
2022-09-07T14:12:18.291Z,17.77
2022-09-07T14:14:45.132Z,18.28
2022-09-07T14:17:14.910Z,19.27
2022-09-07T14:19:45.192Z,17.29
2022-09-07T14:22:23.608Z,18.50
2022-09-07T14:25:01.928Z,18.73
2022-09-07T14:27:38.499Z,18.09
2022-09-07T14:30:23.703Z,19.18
2022-09-07T14:32:53.580Z,17.25
2022-09-07T14:35:31.888Z,18.08
2022-09-07T14:38:06.487Z,16.57
2022-09-07T14:40:34.427Z,18.29
2022-09-07T14:43:02.098Z,17.76
2022-09-07T14:45:28.851Z,18.60
2022-09-07T14:47:56.658Z,18.26
2022-09-07T14:50:30.776Z,17.84
2022-09-07T14:55:47.034Z,18.40
2022-09-07T14:58:13.716Z,17.17
2022-09-07T15:04:01.560Z,18.12
2022-09-07T15:07:02.337Z,18.81
2022-09-07T15:09:35.745Z,20.40
2022-09-07T15:12:17.600Z,20.48
2022-09-07T15:14:44.529Z,21.89
2022-09-07T15:17:47.820Z,17.73
2022-09-07T15:20:41.083Z,19.26
2022-09-07T15:23:10.583Z,18.69
2022-09-07T15:25:38.278Z,19.74
2022-09-07T15:28:05.875Z,19.24
2022-09-07T15:30:33.884Z,19.65
2022-09-07T15:33:00.846Z,19.31
2022-09-07T15:35:27.625Z,20.94
2022-09-07T15:38:02.750Z,19.95
2022-09-07T15:41:03.699Z,20.15
2022-09-07T15:43:30.845Z,22.16
2022-09-07T15:45:57.915Z,20.29
2022-09-07T15:48:25.467Z,21.81
2022-09-07T15:51:01.982Z,19.82
2022-09-07T15:56:17.285Z,20.89
2022-09-07T15:58:46.714Z,20.36
2022-09-07T16:04:00.319Z,20.94
2022-09-07T16:06:27.389Z,20.09
2022-09-07T16:08:55.018Z,21.55
2022-09-07T16:11:24.779Z,21.44
2022-09-07T16:14:02.134Z,20.88
2022-09-07T16:19:20.642Z,20.51
2022-09-07T16:21:47.545Z,20.54
2022-09-07T16:24:14.297Z,20.72
2022-09-07T16:26:41.030Z,20.69
2022-09-07T16:29:08.165Z,19.28
2022-09-07T16:31:35.445Z,19.31
2022-09-07T16:34:03.440Z,22.25
2022-09-07T16:36:30.644Z,20.67
2022-09-07T16:39:00.332Z,22.21
2022-09-07T16:41:32.083Z,21.84
2022-09-07T16:43:59.193Z,21.81
2022-09-07T16:46:28.317Z,20.39
2022-09-07T16:48:55.178Z,20.79
2022-09-07T16:51:23.707Z,20.23
2022-09-07T16:53:53.396Z,21.27
2022-09-07T16:56:22.870Z,21.23
2022-09-07T16:58:56.129Z,22.66
2022-09-07T17:01:29.294Z,21.82
2022-09-07T17:03:56.901Z,22.25
2022-09-07T17:06:26.520Z,22.46
2022-09-07T17:08:53.885Z,22.17
2022-09-07T17:11:23.555Z,22.35
2022-09-07T17:13:51.932Z,22.71
2022-09-07T17:16:22.539Z,21.73
2022-09-07T17:21:39.492Z,23.01
2022-09-07T17:24:08.756Z,23.48
2022-09-07T17:26:36.011Z,23.23
2022-09-07T17:29:02.761Z,22.92
2022-09-07T17:34:21.182Z,22.61
2022-09-07T17:36:48.248Z,22.81
2022-09-07T17:39:17.295Z,23.85
2022-09-07T17:41:46.234Z,23.48
2022-09-07T17:44:13.173Z,23.67
2022-09-07T17:46:40.412Z,22.57
2022-09-07T17:49:08.775Z,23.16
2022-09-07T17:51:36.208Z,24.15
2022-09-07T17:54:09.691Z,23.12
2022-09-07T17:56:37.470Z,22.25
2022-09-07T18:01:53.768Z,23.22
2022-09-07T18:04:21.604Z,24.50
2022-09-07T18:06:48.465Z,22.88
2022-09-07T18:09:15.289Z,22.96
2022-09-07T18:11:45.825Z,22.69
2022-09-07T18:14:14.703Z,23.18
2022-09-07T18:16:42.689Z,23.28
2022-09-07T18:19:11.448Z,22.81
2022-09-07T18:21:39.313Z,22.61
2022-09-07T18:24:27.862Z,22.98
2022-09-07T18:26:54.600Z,23.22
2022-09-07T18:29:39.174Z,23.80
2022-09-07T18:32:09.444Z,23.34
2022-09-07T18:34:38.578Z,22.76
2022-09-07T18:37:05.831Z,23.12
2022-09-07T18:39:33.572Z,23.61
2022-09-07T18:42:00.360Z,23.83
2022-09-07T18:47:21.804Z,23.86
2022-09-07T18:49:50.920Z,24.37
2022-09-07T18:55:07.004Z,25.06
2022-09-07T18:57:34.304Z,27.16
2022-09-07T19:00:01.138Z,26.35
2022-09-07T19:02:28.006Z,26.09
2022-09-07T19:07:41.646Z,27.00
2022-09-07T19:10:08.815Z,26.70
2022-09-07T19:12:35.714Z,28.74
2022-09-07T19:15:03.768Z,26.29
2022-09-07T19:17:31.704Z,28.75
2022-09-07T19:19:58.430Z,25.61
2022-09-07T19:22:27.249Z,26.42
2022-09-07T19:24:54.753Z,25.39
2022-09-07T19:27:21.928Z,24.82
2022-09-07T19:29:49.438Z,26.38
2022-09-07T19:32:17.466Z,27.57
2022-09-07T19:34:45.588Z,26.44
2022-09-07T19:37:13.544Z,26.59
2022-09-07T19:39:40.316Z,25.32
2022-09-07T19:42:07.309Z,26.15
2022-09-07T19:44:35.051Z,24.75
2022-09-07T19:47:02.033Z,26.42
2022-09-07T19:49:28.829Z,26.03
2022-09-07T19:51:56.090Z,25.94
2022-09-07T19:54:22.794Z,26.74
2022-09-07T19:56:49.818Z,28.95
2022-09-07T19:59:19.191Z,26.62
2022-09-07T20:01:47.598Z,26.20
2022-09-07T20:04:20.360Z,26.42
2022-09-07T20:06:50.177Z,26.85
2022-09-07T20:09:18.910Z,26.35
2022-09-07T20:11:49.386Z,25.97
2022-09-07T20:14:16.878Z,25.64
2022-09-07T20:16:44.901Z,25.29
2022-09-07T20:19:15.033Z,25.19
2022-09-07T20:21:42.682Z,26.05
2022-09-07T20:24:11.686Z,25.53
2022-09-07T20:26:38.632Z,26.60
2022-09-07T20:29:26.067Z,27.38
2022-09-07T20:31:53.802Z,25.91
2022-09-07T20:34:20.782Z,24.91
2022-09-07T20:36:50.703Z,26.07
2022-09-07T20:39:18.246Z,26.77
2022-09-07T20:41:45.512Z,25.84
2022-09-07T20:44:13.109Z,25.41
2022-09-07T20:46:40.295Z,26.88
2022-09-07T20:49:07.458Z,25.57
2022-09-07T20:51:34.354Z,26.58
2022-09-07T20:54:01.443Z,25.93
2022-09-07T20:56:30.279Z,24.92
2022-09-07T20:59:02.791Z,25.58
2022-09-07T21:01:31.627Z,25.05
2022-09-07T21:04:00.667Z,26.47
2022-09-07T21:06:29.638Z,26.15
2022-09-07T21:08:57.318Z,26.41
2022-09-07T21:11:31.222Z,26.29
2022-09-07T21:14:00.947Z,26.39
2022-09-07T21:16:28.558Z,26.33
2022-09-07T21:18:58.823Z,25.65
2022-09-07T21:21:28.141Z,26.36
2022-09-07T21:23:57.124Z,26.27
2022-09-07T21:26:24.741Z,25.58
2022-09-07T21:28:59.665Z,26.50
2022-09-07T21:31:27.269Z,27.10
2022-09-07T21:33:59.421Z,25.94
2022-09-07T21:36:26.946Z,27.10
2022-09-07T21:38:54.420Z,28.01
2022-09-07T21:41:22.855Z,26.73
2022-09-07T21:43:53.672Z,27.26
2022-09-07T21:46:20.433Z,27.39
2022-09-07T21:48:47.170Z,27.79
2022-09-07T21:51:14.610Z,27.73
2022-09-07T21:53:42.018Z,27.42
2022-09-07T21:56:14.026Z,26.64
2022-09-07T21:58:41.407Z,27.09
2022-09-07T22:01:17.297Z,27.13
2022-09-07T22:03:46.372Z,28.54
2022-09-07T22:06:13.576Z,30.84
2022-09-07T22:08:41.457Z,29.89
2022-09-07T22:11:11.530Z,28.42
2022-09-07T22:13:38.711Z,26.07
2022-09-07T22:16:06.893Z,26.14
2022-09-07T22:18:36.866Z,24.98
2022-09-07T22:21:08.206Z,27.97
2022-09-07T22:23:38.003Z,27.33
2022-09-07T22:26:05.218Z,28.80
2022-09-07T22:28:32.793Z,30.62
2022-09-07T22:31:13.459Z,27.67
2022-09-07T22:33:41.607Z,27.35
2022-09-07T22:36:15.551Z,26.41
2022-09-07T22:38:44.486Z,28.06
2022-09-07T22:41:16.574Z,26.09
2022-09-07T22:43:44.435Z,27.24
2022-09-07T22:46:12.385Z,26.42
2022-09-07T22:48:39.922Z,26.55
2022-09-07T22:51:07.232Z,27.74
2022-09-07T22:53:36.150Z,26.57
2022-09-07T22:56:30.034Z,28.40
2022-09-07T22:59:02.017Z,27.97
2022-09-07T23:01:30.240Z,26.26
2022-09-07T23:03:57.434Z,27.48
2022-09-07T23:06:27.086Z,27.61
2022-09-07T23:08:55.556Z,24.96
2022-09-07T23:11:24.072Z,26.69
2022-09-07T23:13:56.570Z,24.54
2022-09-07T23:16:24.432Z,26.64
2022-09-07T23:18:51.754Z,26.19
2022-09-07T23:21:18.970Z,26.80
2022-09-07T23:23:58.331Z,26.22
2022-09-07T23:26:27.921Z,26.43
2022-09-07T23:29:00.280Z,29.20
2022-09-07T23:31:28.806Z,27.46
2022-09-07T23:33:59.200Z,29.19
2022-09-07T23:36:26.517Z,28.61
2022-09-07T23:38:58.046Z,27.89
2022-09-07T23:41:25.399Z,27.87
2022-09-07T23:43:52.976Z,27.28
2022-09-07T23:46:20.854Z,28.57
2022-09-07T23:48:48.401Z,27.74
2022-09-07T23:51:19.952Z,26.54
2022-09-07T23:53:49.838Z,29.64
2022-09-07T23:56:16.646Z,30.59
2022-09-07T23:58:43.461Z,27.14
